Latest Weather Observations for Cape Wessel

IDD60801

Issued at 8:41 pm CST Sunday 16 December 2018 (issued every 10 minutes, with the page automatically refreshed every 10 minutes)

About weather observations | Map of weather stations | Latest weather observations for NT | Other Formats
Station Details ID: 200786 Name: CAPE WESSEL Lat: -11.00 Lon: 136.76 Height: 18.0 m
Data from the previous 72 hours. | See also: Recent months at Cape Wessel
Date/Time
CST
Temp
°C
App
Temp
°C
Dew
Point
°C
Rel
Hum
%
Delta-T
°C
Wind Press
QNH
hPa
Press
MSL
hPa
Rain since
9am
mm
Dir  Spd
km/h
Gust
km/h
Spd
kts
Gust
kts
16/08:30pm 29.3 30.1 25.7 81 2.6 NW 32 39 17 21 1007.6 1007.5 0.0
16/08:00pm 29.5 31.2 25.9 81 2.6 WNW 28 37 15 20 1007.0 1006.9 0.0
16/07:30pm 29.4 30.7 25.2 78 3.0 WNW 28 37 15 20 1006.7 1006.6 0.0
16/07:00pm 29.6 29.7 24.9 76 3.3 WNW 33 41 18 22 1006.2 1006.1 0.0
16/06:30pm 29.9 31.0 25.6 78 3.1 WNW 30 39 16 21 1006.0 1005.9 0.0
16/06:00pm 30.6 31.1 25.2 73 3.8 NW 32 39 17 21 1005.7 1005.6 0.0
16/05:30pm 30.8 32.4 26.3 77 3.2 NW 30 35 16 19 1005.6 1005.5 0.0
16/05:00pm 31.7 33.9 26.7 75 3.6 NW 28 35 15 19 1005.6 1005.5 0.0
16/04:30pm 32.6 35.0 26.9 72 4.1 NW 28 35 15 19 1005.4 1005.3 0.0
16/04:00pm 33.8 36.7 26.5 65 5.3 WNW 24 30 13 16 1005.5 1005.4 0.0
16/03:30pm 34.1 37.0 27.1 67 5.1 WNW 26 32 14 17 1005.6 1005.5 0.0
16/03:00pm 34.1 37.8 27.1 67 5.1 WNW 22 28 12 15 1005.6 1005.5 0.0
16/02:30pm 34.9 39.1 27.3 64 5.5 NW 20 26 11 14 1005.8 1005.7 0.0
16/02:00pm 35.1 39.1 27.0 63 5.9 WNW 20 24 11 13 1006.0 1005.9 0.0
16/01:30pm 35.6 40.3 28.0 65 5.6 WNW 20 26 11 14 1006.3 1006.2 0.0
16/01:00pm 34.1 38.3 27.3 67 4.9 WNW 20 26 11 14 1006.8 1006.7 0.0
16/12:30pm 34.1 38.0 26.6 65 5.4 WNW 19 22 10 12 1007.4 1007.3 0.0
16/12:00pm 34.4 38.6 27.1 65 5.3 WNW 19 24 10 13 1007.3 1007.2 0.0
16/11:30am 35.0 39.4 27.4 64 5.6 WNW 19 20 10 11 1007.4 1007.3 0.0
16/11:00am 33.6 37.5 26.1 65 5.4 NNW 17 20 9 11 1007.9 1007.8 0.0
16/10:30am 33.9 37.6 26.6 65 5.3 WNW 20 24 11 13 1007.9 1007.8 0.0
16/10:00am 33.9 38.7 28.1 71 4.3 WNW 20 24 11 13 1008.3 1008.2 0.0
16/09:30am 32.1 35.4 26.6 72 4.0 WNW 22 26 12 14 1008.3 1008.2 0.0
16/09:00am 31.6 35.5 26.6 75 3.6 WNW 19 22 10 12 1008.4 1008.3 8.4
16/08:30am 32.1 36.1 27.1 75 3.6 WNW 20 22 11 12 1008.2 1008.1 8.2
16/08:00am 31.5 36.1 27.6 80 2.8 WNW 19 22 10 12 1008.0 1007.9 8.2
16/07:30am 30.6 34.9 27.2 82 2.5 WNW 19 22 10 12 1007.9 1007.8 8.2
16/07:00am 29.8 34.1 27.2 86 1.9 WNW 19 24 10 13 1007.6 1007.5 8.2
16/06:30am 29.2 33.5 27.2 89 1.4 NW 19 22 10 12 1007.3 1007.2 8.2
16/06:00am 28.9 32.7 26.7 88 1.6 WNW 20 26 11 14 1007.0 1006.9 8.2
16/05:30am 28.9 31.8 26.5 87 1.7 WNW 24 28 13 15 1006.5 1006.4 8.2
16/05:00am 29.0 31.7 26.8 88 1.6 WNW 26 30 14 16 1006.1 1006.0 8.2
16/04:30am 28.8 32.1 26.6 88 1.6 WNW 22 28 12 15 1005.6 1005.5 8.2
16/04:00am 28.7 31.6 26.5 88 1.6 WNW 24 28 13 15 1005.6 1005.5 8.2
16/03:30am 28.7 32.6 26.9 90 1.3 NW 20 26 11 14 1005.8 1005.7 8.2
16/03:00am 28.7 32.5 26.7 89 1.4 NW 20 26 11 14 1006.0 1005.9 8.2
16/02:30am 28.7 32.6 26.9 90 1.3 NW 20 28 11 15 1006.1 1006.0 8.2
16/02:00am 28.5 32.5 27.1 92 1.0 NW 20 24 11 13 1006.1 1006.0 8.2
16/01:30am 28.5 32.5 27.1 92 1.0 NW 20 24 11 13 1006.2 1006.1 8.2
16/01:00am 28.4 32.2 26.8 91 1.1 NW 20 24 11 13 1006.3 1006.2 8.2
16/12:30am 28.3 32.3 26.7 91 1.1 NNW 19 24 10 13 1006.1 1006.0 8.2
16/12:00am 28.3 32.3 26.7 91 1.1 NNW 19 22 10 12 1006.4 1006.3 8.2
 
Date/Time
CST
Temp
°C
App
Temp
°C
Dew
Point
°C
Rel
Hum
%
Delta-T
°C
Wind Press
QNH
hPa
Press
MSL
hPa
Rain since
9am
mm
Dir  Spd
km/h
Gust
km/h
Spd
kts
Gust
kts
15/11:30pm 28.3 32.1 26.5 90 1.3 NW 19 22 10 12 1006.6 1006.5 8.2
15/11:00pm 28.2 32.2 26.2 89 1.4 NNW 17 20 9 11 1006.4 1006.3 8.2
15/10:30pm 28.3 32.0 26.3 89 1.4 NNW 19 22 10 12 1006.3 1006.2 8.2
15/10:00pm 28.2 32.2 26.2 89 1.4 NNW 17 19 9 10 1006.0 1005.9 8.2
15/09:30pm 28.3 32.6 26.1 88 1.6 NNW 15 19 8 10 1005.9 1005.8 8.2
15/09:00pm 28.2 32.4 26.0 88 1.6 NNW 15 19 8 10 1005.8 1005.7 8.2
15/08:30pm 28.1 32.7 25.9 88 1.6 NNW 13 17 7 9 1005.7 1005.6 8.2
15/08:00pm 28.1 32.7 25.9 88 1.6 NW 13 15 7 8 1005.3 1005.2 8.2
15/07:30pm 28.2 33.1 25.8 87 1.7 NW 11 15 6 8 1005.1 1005.0 8.2
15/07:00pm 28.5 33.2 26.1 87 1.7 WNW 13 17 7 9 1005.1 1005.0 8.2
15/06:30pm 29.0 33.2 26.0 84 2.1 WNW 15 17 8 9 1004.7 1004.6 8.2
15/06:00pm 29.5 33.3 25.9 81 2.6 W 17 19 9 10 1004.5 1004.4 8.2
15/05:30pm 29.7 33.4 25.7 79 2.8 WNW 17 20 9 11 1004.3 1004.2 8.2
15/05:00pm 30.0 33.1 25.7 78 3.0 WNW 20 24 11 13 1004.4 1004.3 8.2
15/04:30pm 30.6 33.5 25.9 76 3.4 WNW 22 26 12 14 1004.4 1004.3 8.2
15/04:00pm 32.1 34.8 25.7 69 4.6 W 22 28 12 15 1004.3 1004.2 8.2
15/03:30pm 32.0 35.7 25.8 69 4.4 W 17 22 9 12 1004.4 1004.3 8.2
15/03:00pm 30.8 33.2 25.2 72 4.0 W 22 28 12 15 1004.8 1004.7 8.2
15/02:30pm 30.7 34.2 25.5 74 3.7 WSW 17 20 9 11 1005.1 1005.0 8.2
15/02:00pm 30.2 33.9 24.6 72 3.9 W 13 15 7 8 1005.3 1005.2 8.2
15/01:30pm 29.6 33.4 24.7 75 3.4 W 13 17 7 9 1005.6 1005.5 8.2
15/01:00pm 28.5 31.7 24.3 78 2.9 W 15 17 8 9 1006.5 1006.4 8.2
15/12:30pm 28.6 32.3 25.2 82 2.4 WSW 15 20 8 11 1006.8 1006.7 8.2
15/12:00pm 28.0 31.6 25.6 87 1.7 WSW 17 20 9 11 1006.8 1006.7 8.2
15/11:30am 27.5 33.4 26.8 96 0.5 S 9 13 5 7 1007.0 1006.9 8.2
15/11:00am 26.2 30.3 25.7 97 0.4 SSW 15 19 8 10 1007.2 1007.1 8.2
15/10:30am 25.2 27.3 24.7 97 0.3 SW 22 28 12 15 1008.3 1008.2 8.2
15/10:00am 25.5 28.3 25.2 98 0.2 SSW 20 26 11 14 1008.5 1008.4 8.2
15/09:30am 25.5 27.5 25.2 98 0.2 S 24 30 13 16 1008.7 1008.6 8.2
15/09:00am 25.1 26.0 24.6 97 0.3 S 28 37 15 20 1009.2 1009.1 53.4
15/08:30am 25.1 27.2 24.1 94 0.7 SSW 20 63 11 34 1008.7 1008.6 33.8
15/08:11am 25.7 24.6 24.1 91 1.1 WSW 37 52 20 28 1008.3 1008.2 20.0
15/08:00am 27.2 25.9 24.5 85 1.9 W 39 59 21 32 1007.7 1007.6 5.2
15/07:58am 28.5 28.5 25.3 83 2.3 WNW 35 57 19 31 1007.6 1007.5 3.4
15/07:30am 30.1 31.7 26.9 83 2.3 WNW 32 39 17 21 1006.9 1006.8 3.4
15/07:00am 29.7 31.7 26.9 85 2.0 WNW 30 39 16 21 1006.1 1006.0 3.4
15/06:30am 29.4 30.8 26.6 85 2.0 WNW 32 39 17 21 1005.7 1005.6 3.4
15/06:00am 29.3 29.5 26.7 86 1.9 WNW 39 46 21 25 1005.4 1005.3 3.4
15/05:30am 29.2 29.7 26.6 86 1.9 WNW 37 44 20 24 1004.8 1004.7 3.4
15/05:00am 29.1 29.5 26.5 86 1.9 WNW 37 46 20 25 1004.3 1004.2 3.4
15/04:30am 29.1 30.5 26.9 88 1.6 WNW 33 43 18 23 1004.1 1004.0 3.4
15/04:00am 29.1 30.0 26.7 87 1.7 WNW 35 44 19 24 1004.1 1004.0 3.4
15/03:30am 28.9 30.2 26.7 88 1.6 WNW 33 43 18 23 1004.3 1004.2 3.4
15/03:00am 28.7 30.4 26.5 88 1.6 NW 30 39 16 21 1004.1 1004.0 3.4
15/02:30am 28.7 30.7 26.9 90 1.3 NW 30 35 16 19 1004.3 1004.2 3.4
15/02:00am 27.4 30.9 26.0 92 1.0 NNW 19 22 10 12 1004.4 1004.3 3.4
15/01:30am 26.5 29.5 24.7 90 1.3 N 17 20 9 11 1004.5 1004.4 3.4
15/01:00am 25.8 29.2 24.0 90 1.2 N 13 17 7 9 1005.0 1004.9 3.4
15/12:30am 25.7 28.3 23.9 90 1.2 N 17 20 9 11 1005.7 1005.6 3.4
15/12:00am 25.0 27.0 22.9 88 1.4 NNE 17 24 9 13 1006.0 1005.9 3.4
 
Date/Time
CST
Temp
°C
App
Temp
°C
Dew
Point
°C
Rel
Hum
%
Delta-T
°C
Wind Press
QNH
hPa
Press
MSL
hPa
Rain since
9am
mm
Dir  Spd
km/h
Gust
km/h
Spd
kts
Gust
kts
14/11:30pm 24.6 27.3 22.8 90 1.2 N 13 15 7 8 1006.1 1006.0 3.4
14/11:00pm 24.4 27.5 22.8 91 1.1 E 11 15 6 8 1006.4 1006.3 3.4
14/10:30pm 24.1 25.9 22.5 91 1.1 SW 17 32 9 17 1006.5 1006.4 2.6
14/10:02pm 25.5 22.5 20.7 75 3.1 SW 37 56 20 30 1006.6 1006.5 0.0
14/10:00pm 26.1 22.9 20.2 70 3.8 WSW 37 56 20 30 1006.6 1006.5 0.0
14/09:56pm 27.9 26.1 21.2 67 4.5 W 32 56 17 30 1006.6 1006.5 0.0
14/09:30pm 29.7 32.1 26.9 85 2.0 WNW 28 37 15 20 1005.5 1005.4 0.0
14/09:00pm 29.7 31.7 26.9 85 2.0 NW 30 39 16 21 1004.9 1004.8 0.0
14/08:30pm 29.6 31.7 27.0 86 1.9 NW 30 37 16 20 1004.7 1004.6 0.0
14/08:00pm 29.6 32.4 27.0 86 1.9 NW 26 35 14 19 1004.5 1004.4 0.0
14/07:30pm 29.7 32.1 26.9 85 2.0 WNW 28 37 15 20 1004.5 1004.4 0.0
14/07:00pm 29.8 31.2 26.8 84 2.2 NW 33 41 18 22 1003.8 1003.7 0.0
14/06:30pm 30.0 31.9 26.8 83 2.3 WNW 30 39 16 21 1003.4 1003.3 0.0
14/06:00pm 30.5 29.7 26.4 79 2.9 WNW 43 50 23 27 1003.0 1002.9 0.0
14/05:30pm 30.6 31.8 26.5 79 2.9 WNW 33 44 18 24 1002.7 1002.6 0.0
14/05:00pm 30.9 30.1 26.4 77 3.2 WNW 43 54 23 29 1002.6 1002.5 0.0
14/04:30pm 31.2 30.6 26.2 75 3.6 WNW 41 50 22 27 1002.3 1002.2 0.0
14/04:00pm 31.7 30.8 26.5 74 3.7 WNW 44 52 24 28 1002.3 1002.2 0.0
14/03:30pm 32.1 32.8 26.9 74 3.8 WNW 37 48 20 26 1002.2 1002.1 0.0
14/03:00pm 32.5 32.6 26.6 71 4.3 WNW 39 48 21 26 1002.3 1002.2 0.0
14/02:30pm 33.3 32.6 26.6 68 4.8 WNW 43 50 23 27 1002.5 1002.4 0.0
14/02:00pm 33.9 33.3 26.1 63 5.6 WNW 41 50 22 27 1003.0 1002.9 0.0
14/01:30pm 33.6 32.6 26.1 65 5.4 WNW 43 54 23 29 1003.3 1003.2 0.0
14/01:00pm 33.0 31.6 25.5 64 5.3 WNW 43 54 23 29 1003.4 1003.3 0.0
14/12:30pm 33.4 32.6 26.4 66 5.0 WNW 43 52 23 28 1003.7 1003.6 0.0
14/12:00pm 30.5 30.0 26.9 81 2.6 WNW 43 56 23 30 1004.1 1004.0 0.0
14/11:30am 32.3 31.1 26.1 70 4.4 WNW 44 54 24 29 1004.8 1004.7 0.0
14/11:00am 32.8 32.1 26.6 70 4.5 WNW 43 54 23 29 1004.9 1004.8 0.0
14/10:30am 32.5 31.1 26.3 70 4.5 WNW 46 56 25 30 1005.1 1005.0 0.0
14/10:00am 32.7 32.5 26.7 70 4.3 WNW 41 48 22 26 1005.3 1005.2 0.0
14/09:30am 32.2 32.0 26.7 72 4.0 WNW 41 48 22 26 1005.1 1005.0 0.0
14/09:00am 32.2 33.1 26.7 72 4.0 WNW 35 46 19 25 1005.5 1005.4 7.8
14/08:30am 31.6 32.1 26.6 75 3.6 WNW 37 46 20 25 1005.3 1005.2 7.8
14/08:00am 31.0 29.9 26.0 74 3.6 WNW 43 52 23 28 1005.5 1005.4 7.8
14/07:32am 30.6 30.4 26.1 77 3.2 WNW 39 57 21 31 1005.6 1005.5 7.8
14/07:30am 30.7 31.0 26.4 78 3.1 WNW 37 50 20 27 1005.6 1005.5 7.8
14/07:00am 30.1 31.4 26.7 82 2.4 WNW 33 43 18 23 1005.5 1005.4 7.8
14/06:30am 29.3 29.6 25.7 81 2.6 WNW 35 43 19 23 1004.9 1004.8 7.8
14/06:00am 28.6 29.2 24.8 80 2.7 WNW 30 39 16 21 1004.7 1004.6 7.8
14/05:30am 28.6 29.3 25.8 85 2.0 WNW 33 44 18 24 1004.5 1004.4 7.8
14/05:00am 28.7 29.2 25.5 83 2.3 WNW 33 41 18 22 1003.7 1003.6 7.8
14/04:30am 29.6 29.6 26.4 83 2.3 NW 39 57 21 31 1003.0 1002.9 7.8
14/04:28am 29.6 30.2 26.8 85 2.0 NW 37 56 20 30 1003.0 1002.9 7.8
14/04:00am 29.5 29.5 26.5 84 2.1 NW 39 50 21 27 1002.5 1002.4 7.8
14/03:30am 29.4 28.6 26.4 84 2.1 NW 43 54 23 29 1002.3 1002.2 7.8
14/03:00am 29.5 29.7 26.7 85 2.0 NW 39 50 21 27 1002.7 1002.6 7.8
14/02:30am 29.4 29.4 26.4 84 2.1 NW 39 52 21 28 1002.9 1002.8 7.8
14/02:00am 29.4 29.4 26.4 84 2.1 NW 39 50 21 27 1003.1 1003.0 7.8
14/01:30am 29.3 29.7 26.5 85 2.0 NW 37 46 20 25 1003.6 1003.5 7.8
14/01:00am 29.3 29.7 26.5 85 2.0 NW 37 44 20 24 1004.0 1003.9 7.8
14/12:30am 29.3 29.2 26.3 84 2.1 NW 39 48 21 26 1004.3 1004.2 7.8
14/12:00am 29.3 29.6 26.3 84 2.1 NW 37 48 20 26 1004.9 1004.8 7.8
 
Date/Time
CST
Temp
°C
App
Temp
°C
Dew
Point
°C
Rel
Hum
%
Delta-T
°C
Wind Press
QNH
hPa
Press
MSL
hPa
Rain since
9am
mm
Dir  Spd
km/h
Gust
km/h
Spd
kts
Gust
kts
13/11:30pm 29.3 29.9 26.3 84 2.1 NW 35 43 19 23 1005.2 1005.1 7.8
13/11:00pm 29.3 30.5 26.5 85 2.0 NW 33 44 18 24 1005.4 1005.3 7.8
13/10:30pm 29.4 29.5 26.0 82 2.4 NW 37 46 20 25 1005.4 1005.3 7.8
13/10:00pm 29.3 29.9 26.3 84 2.1 NW 35 43 19 23 1005.1 1005.0 7.8
13/09:30pm 29.4 30.0 26.2 83 2.3 NW 35 44 19 24 1005.4 1005.3 7.8
13/09:00pm 29.4 30.1 25.8 81 2.6 NW 33 43 18 23 1005.3 1005.2 7.8

Other Formats:

Comma delimited format used in spreadsheet applications
http://www.bom.gov.au/fwo/IDD60801/IDD60801.94147.axf

JavaScript Object Notation format (JSON) in row-major order
http://www.bom.gov.au/fwo/IDD60801/IDD60801.94147.json